Aviation Digital Data Service (ADDS)

Output produced by METARs form (2107 UTC 06 December 2019)
found at http://www.aviationweather.gov/metar/data/
 
METAR text: KEDW 062058Z 22003KT 30SM SCT023 SCT050 OVC220 12/05 A3018 RMK AO2A VIS LWR SE-S SLP219 CONTRAILS T01200047 55014
Conditions at: KEDW (EDWARDS AFB , CA, US) observed 2058 UTC 06 December 2019
Temperature: 12.0°C (54°F)
Dewpoint: 4.7°C (40°F) [RH = 61%]
Pressure (altimeter): 30.18 inches Hg (1022.1 mb)
[Sea-level pressure: 1021.9 mb]
Winds: from the SW (220 degrees) at 3 MPH (3 knots; 1.5 m/s)
Visibility: 30 miles (48 km)
Ceiling: 22000 feet AGL
Clouds: scattered clouds at 2300 feet AGL
scattered clouds at 5000 feet AGL
overcast cloud deck at 22000 feet AGL
Weather: no significant weather observed at this time

METAR text: KEDW 061958Z 00000KT 30SM FEW020 SCT050 BKN220 12/05 A3018 RMK AO2A VIS LWR SE-S SLP219 CONTRAILS T01170051
Conditions at: KEDW (EDWARDS AFB , CA, US) observed 1958 UTC 06 December 2019
Temperature: 11.7°C (53°F)
Dewpoint: 5.1°C (41°F) [RH = 64%]
Pressure (altimeter): 30.18 inches Hg (1022.1 mb)
[Sea-level pressure: 1021.9 mb]
Winds: calm
Visibility: 30 miles (48 km)
Ceiling: 22000 feet AGL
Clouds: few clouds at 2000 feet AGL
scattered clouds at 5000 feet AGL
broken clouds at 22000 feet AGL
Weather: no significant weather observed at this time

METAR text: KEDW 061858Z 04003KT 30SM FEW020 BKN250 09/05 A3020 RMK AO2A VIS LWR SE-S SLP229 CONTRAILS T00900050
Conditions at: KEDW (EDWARDS AFB , CA, US) observed 1858 UTC 06 December 2019
Temperature: 9.0°C (48°F)
Dewpoint: 5.0°C (41°F) [RH = 76%]
Pressure (altimeter): 30.20 inches Hg (1022.8 mb)
[Sea-level pressure: 1022.9 mb]
Winds: from the NE (40 degrees) at 3 MPH (3 knots; 1.5 m/s)
Visibility: 30 miles (48 km)
Ceiling: 25000 feet AGL
Clouds: few clouds at 2000 feet AGL
broken clouds at 25000 feet AGL
Weather: no significant weather observed at this time

METAR text: KEDW 061758Z 08003KT 30SM FEW010 BKN250 08/05 A3023 RMK AO2A VIS LWR SE-S SLP239 CONTRAILS T00840046 10084 20039 52010
Conditions at: KEDW (EDWARDS AFB , CA, US) observed 1758 UTC 06 December 2019
Temperature: 8.4°C (47°F)
Dewpoint: 4.6°C (40°F) [RH = 77%]
Pressure (altimeter): 30.23 inches Hg (1023.8 mb)
[Sea-level pressure: 1023.9 mb]
Winds: from the E (80 degrees) at 3 MPH (3 knots; 1.5 m/s)
Visibility: 30 miles (48 km)
Ceiling: 25000 feet AGL
Clouds: few clouds at 1000 feet AGL
broken clouds at 25000 feet AGL
Weather: no significant weather observed at this time

METAR text: KEDW 061658Z 00000KT 40SM FEW010 BKN250 05/04 A3022 RMK AO2A VIS LWR SE-S SLP239 CONTRAILS T00510038
Conditions at: KEDW (EDWARDS AFB , CA, US) observed 1658 UTC 06 December 2019
Temperature: 5.1°C (41°F)
Dewpoint: 3.8°C (39°F) [RH = 91%]
Pressure (altimeter): 30.22 inches Hg (1023.5 mb)
[Sea-level pressure: 1023.9 mb]
Winds: calm
Visibility: 40 miles (64 km)
Ceiling: 25000 feet AGL
Clouds: few clouds at 1000 feet AGL
broken clouds at 25000 feet AGL
Weather: no significant weather observed at this time

METAR text: KEDW 061558Z 03005KT 40SM BKN250 04/04 A3021 RMK AO2A VIS LWR SE-S SLP236 CONTRAILS T00440035
Conditions at: KEDW (EDWARDS AFB , CA, US) observed 1558 UTC 06 December 2019
Temperature: 4.4°C (40°F)
Dewpoint: 3.5°C (38°F) [RH = 94%]
Pressure (altimeter): 30.21 inches Hg (1023.1 mb)
[Sea-level pressure: 1023.6 mb]
Winds: from the NNE (30 degrees) at 6 MPH (5 knots; 2.6 m/s)
Visibility: 40 miles (64 km)
Ceiling: 25000 feet AGL
Clouds: broken clouds at 25000 feet AGL
Weather: no significant weather observed at this time

METAR text: KEDW 061458Z 00000KT 40SM BKN250 04/04 A3020 RMK AO2A VIS LWR SE-S SLP231 CONTRAILS T00410037 53007
Conditions at: KEDW (EDWARDS AFB , CA, US) observed 1458 UTC 06 December 2019
Temperature: 4.1°C (39°F)
Dewpoint: 3.7°C (39°F) [RH = 97%]
Pressure (altimeter): 30.20 inches Hg (1022.8 mb)
[Sea-level pressure: 1023.1 mb]
Winds: calm
Visibility: 40 miles (64 km)
Ceiling: 25000 feet AGL
Clouds: broken clouds at 25000 feet AGL
Weather: no significant weather observed at this time

METAR text: KEDW 061358Z 01005KT 30SM FEW250 04/04 A3018 RMK AO2A SLP224 T00440041
Conditions at: KEDW (EDWARDS AFB , CA, US) observed 1358 UTC 06 December 2019
Temperature: 4.4°C (40°F)
Dewpoint: 4.1°C (39°F) [RH = 98%]
Pressure (altimeter): 30.18 inches Hg (1022.1 mb)
[Sea-level pressure: 1022.4 mb]
Winds: from the N (10 degrees) at 6 MPH (5 knots; 2.6 m/s)
Visibility: 30 miles (48 km)
Ceiling: at least 12,000 feet AGL
Clouds: few clouds at 25000 feet AGL
Weather: no significant weather observed at this time

METAR text: KEDW 061258Z AUTO 00000KT 8SM CLR 05/05 A3017 RMK AO2 SLP219 T00490046
Conditions at: KEDW (EDWARDS AFB , CA, US) observed 1258 UTC 06 December 2019
Temperature: 4.9°C (41°F)
Dewpoint: 4.6°C (40°F) [RH = 98%]
Pressure (altimeter): 30.17 inches Hg (1021.8 mb)
[Sea-level pressure: 1021.9 mb]
Winds: calm
Visibility: 8 miles (13 km)
Ceiling: at least 12,000 feet AGL
Clouds: sky clear below 12,000 feet AGL
Weather: automated observation with no human augmentation;
there may or may not be significant weather present at this time

METAR text: KEDW 061158Z AUTO 00000KT 10SM FEW230 06/05 A3017 RMK AO2 SLP217 T00560046 10077 20056 50002
Conditions at: KEDW (EDWARDS AFB , CA, US) observed 1158 UTC 06 December 2019
Temperature: 5.6°C (42°F)
Dewpoint: 4.6°C (40°F) [RH = 93%]
Pressure (altimeter): 30.17 inches Hg (1021.8 mb)
[Sea-level pressure: 1021.7 mb]
Winds: calm
Visibility: 10 or more miles (16+ km)
Ceiling: at least 12,000 feet AGL
Clouds: few clouds at 23000 feet AGL
Weather: automated observation with no human augmentation;
there may or may not be significant weather present at this time

METAR text: KEDW 061128Z AUTO 04005KT 10SM SCT041 OVC230 07/05 A3016 RMK AO2 SLP212
Conditions at: KEDW (EDWARDS AFB , CA, US) observed 1128 UTC 06 December 2019
Temperature: 7.0°C (45°F)
Dewpoint: 5.0°C (41°F) [RH = 87%]
Pressure (altimeter): 30.16 inches Hg (1021.4 mb)
[Sea-level pressure: 1021.2 mb]
Winds: from the NE (40 degrees) at 6 MPH (5 knots; 2.6 m/s)
Visibility: 10 or more miles (16+ km)
Ceiling: 23000 feet AGL
Clouds: scattered clouds at 4100 feet AGL
overcast cloud deck at 23000 feet AGL
Weather: automated observation with no human augmentation;
there may or may not be significant weather present at this time

METAR text: KEDW 061058Z AUTO 00000KT 10SM OVC041 07/05 A3018 RMK AO2 SLP219 T00710049
Conditions at: KEDW (EDWARDS AFB , CA, US) observed 1058 UTC 06 December 2019
Temperature: 7.1°C (45°F)
Dewpoint: 4.9°C (41°F) [RH = 86%]
Pressure (altimeter): 30.18 inches Hg (1022.1 mb)
[Sea-level pressure: 1021.9 mb]
Winds: calm
Visibility: 10 or more miles (16+ km)
Ceiling: 4100 feet AGL
Clouds: overcast cloud deck at 4100 feet AGL
Weather: automated observation with no human augmentation;
there may or may not be significant weather present at this time

METAR text: KEDW 061028Z AUTO 32004KT 10SM BKN042 07/05 A3018 RMK AO2 SLP219
Conditions at: KEDW (EDWARDS AFB , CA, US) observed 1028 UTC 06 December 2019
Temperature: 7.0°C (45°F)
Dewpoint: 5.0°C (41°F) [RH = 87%]
Pressure (altimeter): 30.18 inches Hg (1022.1 mb)
[Sea-level pressure: 1021.9 mb]
Winds: from the NW (320 degrees) at 5 MPH (4 knots; 2.1 m/s)
Visibility: 10 or more miles (16+ km)
Ceiling: 4200 feet AGL
Clouds: broken clouds at 4200 feet AGL
Weather: automated observation with no human augmentation;
there may or may not be significant weather present at this time

METAR text: KEDW 060958Z AUTO 36005KT 10SM CLR 06/05 A3017 RMK AO2 SLP217 T00630051
Conditions at: KEDW (EDWARDS AFB , CA, US) observed 0958 UTC 06 December 2019
Temperature: 6.3°C (43°F)
Dewpoint: 5.1°C (41°F) [RH = 92%]
Pressure (altimeter): 30.17 inches Hg (1021.8 mb)
[Sea-level pressure: 1021.7 mb]
Winds: from the N (360 degrees) at 6 MPH (5 knots; 2.6 m/s)
Visibility: 10 or more miles (16+ km)
Ceiling: at least 12,000 feet AGL
Clouds: sky clear below 12,000 feet AGL
Weather: automated observation with no human augmentation;
there may or may not be significant weather present at this time

METAR text: KEDW 060913Z AUTO 01004KT 10SM SCT039 07/06 A3017 RMK AO2 SLP217
Conditions at: KEDW (EDWARDS AFB , CA, US) observed 0913 UTC 06 December 2019
Temperature: 7.0°C (45°F)
Dewpoint: 6.0°C (43°F) [RH = 93%]
Pressure (altimeter): 30.17 inches Hg (1021.8 mb)
[Sea-level pressure: 1021.7 mb]
Winds: from the N (10 degrees) at 5 MPH (4 knots; 2.1 m/s)
Visibility: 10 or more miles (16+ km)
Ceiling: at least 12,000 feet AGL
Clouds: scattered clouds at 3900 feet AGL
Weather: automated observation with no human augmentation;
there may or may not be significant weather present at this time

METAR text: KEDW 060858Z AUTO 02005KT 10SM BKN040 08/05 A3017 RMK AO2 SLP217 T00750051 55002
Conditions at: KEDW (EDWARDS AFB , CA, US) observed 0858 UTC 06 December 2019
Temperature: 7.5°C (46°F)
Dewpoint: 5.1°C (41°F) [RH = 85%]
Pressure (altimeter): 30.17 inches Hg (1021.8 mb)
[Sea-level pressure: 1021.7 mb]
Winds: from the NNE (20 degrees) at 6 MPH (5 knots; 2.6 m/s)
Visibility: 10 or more miles (16+ km)
Ceiling: 4000 feet AGL
Clouds: broken clouds at 4000 feet AGL
Weather: automated observation with no human augmentation;
there may or may not be significant weather present at this time

METAR text: KEDW 060758Z AUTO 33004KT 10SM OVC038 08/06 A3018 RMK AO2 SLP221 T00750055 401260031
Conditions at: KEDW (EDWARDS AFB , CA, US) observed 0758 UTC 06 December 2019
Temperature: 7.5°C (46°F)
Dewpoint: 5.5°C (42°F) [RH = 87%]
Pressure (altimeter): 30.18 inches Hg (1022.1 mb)
[Sea-level pressure: 1022.1 mb]
Winds: from the NNW (330 degrees) at 5 MPH (4 knots; 2.1 m/s)
Visibility: 10 or more miles (16+ km)
Ceiling: 3800 feet AGL
Clouds: overcast cloud deck at 3800 feet AGL
Weather: automated observation with no human augmentation;
there may or may not be significant weather present at this time

METAR text: KEDW 060743Z AUTO 33004KT 10SM BKN038 08/06 A3018 RMK AO2 SLP222
Conditions at: KEDW (EDWARDS AFB , CA, US) observed 0743 UTC 06 December 2019
Temperature: 8.0°C (46°F)
Dewpoint: 6.0°C (43°F) [RH = 87%]
Pressure (altimeter): 30.18 inches Hg (1022.1 mb)
[Sea-level pressure: 1022.2 mb]
Winds: from the NNW (330 degrees) at 5 MPH (4 knots; 2.1 m/s)
Visibility: 10 or more miles (16+ km)
Ceiling: 3800 feet AGL
Clouds: broken clouds at 3800 feet AGL
Weather: automated observation with no human augmentation;
there may or may not be significant weather present at this time

METAR text: KEDW 060558Z 34007KT 30SM FEW015 FEW030 BKN250 08/06 A3017 RMK AO2A SLP220 T00770062 10123 20077 51005
Conditions at: KEDW (EDWARDS AFB , CA, US) observed 0558 UTC 06 December 2019
Temperature: 7.7°C (46°F)
Dewpoint: 6.2°C (43°F) [RH = 90%]
Pressure (altimeter): 30.17 inches Hg (1021.8 mb)
[Sea-level pressure: 1022.0 mb]
Winds: from the NNW (340 degrees) at 8 MPH (7 knots; 3.6 m/s)
Visibility: 30 miles (48 km)
Ceiling: 25000 feet AGL
Clouds: few clouds at 1500 feet AGL
few clouds at 3000 feet AGL
broken clouds at 25000 feet AGL
Weather: no significant weather observed at this time

METAR text: KEDW 060458Z 00000KT 20SM FEW015 FEW030 BKN250 08/06 A3017 RMK AO2A SLP220 T00790064
Conditions at: KEDW (EDWARDS AFB , CA, US) observed 0458 UTC 06 December 2019
Temperature: 7.9°C (46°F)
Dewpoint: 6.4°C (44°F) [RH = 90%]
Pressure (altimeter): 30.17 inches Hg (1021.8 mb)
[Sea-level pressure: 1022.0 mb]
Winds: calm
Visibility: 20 miles (32 km)
Ceiling: 25000 feet AGL
Clouds: few clouds at 1500 feet AGL
few clouds at 3000 feet AGL
broken clouds at 25000 feet AGL
Weather: no significant weather observed at this time

METAR text: KEDW 060358Z 36006KT 30SM FEW015 FEW030 BKN250 09/07 A3017 RMK AO2A SLP222 T00850066
Conditions at: KEDW (EDWARDS AFB , CA, US) observed 0358 UTC 06 December 2019
Temperature: 8.5°C (47°F)
Dewpoint: 6.6°C (44°F) [RH = 88%]
Pressure (altimeter): 30.17 inches Hg (1021.8 mb)
[Sea-level pressure: 1022.2 mb]
Winds: from the N (360 degrees) at 7 MPH (6 knots; 3.1 m/s)
Visibility: 30 miles (48 km)
Ceiling: 25000 feet AGL
Clouds: few clouds at 1500 feet AGL
few clouds at 3000 feet AGL
broken clouds at 25000 feet AGL
Weather: no significant weather observed at this time

METAR text: KEDW 060258Z 02005KT 30SM FEW015 BKN250 09/07 A3016 RMK AO2A SLP219 T00900068 52012
Conditions at: KEDW (EDWARDS AFB , CA, US) observed 0258 UTC 06 December 2019
Temperature: 9.0°C (48°F)
Dewpoint: 6.8°C (44°F) [RH = 86%]
Pressure (altimeter): 30.16 inches Hg (1021.4 mb)
[Sea-level pressure: 1021.9 mb]
Winds: from the NNE (20 degrees) at 6 MPH (5 knots; 2.6 m/s)
Visibility: 30 miles (48 km)
Ceiling: 25000 feet AGL
Clouds: few clouds at 1500 feet AGL
broken clouds at 25000 feet AGL
Weather: no significant weather observed at this time

METAR text: KEDW 060158Z 03006KT 30SM FEW015 BKN250 10/06 A3014 RMK AO2A SLP210 T01030064
Conditions at: KEDW (EDWARDS AFB , CA, US) observed 0158 UTC 06 December 2019
Temperature: 10.3°C (51°F)
Dewpoint: 6.4°C (44°F) [RH = 77%]
Pressure (altimeter): 30.14 inches Hg (1020.7 mb)
[Sea-level pressure: 1021.0 mb]
Winds: from the NNE (30 degrees) at 7 MPH (6 knots; 3.1 m/s)
Visibility: 30 miles (48 km)
Ceiling: 25000 feet AGL
Clouds: few clouds at 1500 feet AGL
broken clouds at 25000 feet AGL
Weather: no significant weather observed at this time

METAR text: KEDW 060058Z 02005KT 30SM FEW015 BKN250 11/06 A3013 RMK AO2A SLP205 T01110062
Conditions at: KEDW (EDWARDS AFB , CA, US) observed 0058 UTC 06 December 2019
Temperature: 11.1°C (52°F)
Dewpoint: 6.2°C (43°F) [RH = 72%]
Pressure (altimeter): 30.13 inches Hg (1020.4 mb)
[Sea-level pressure: 1020.5 mb]
Winds: from the NNE (20 degrees) at 6 MPH (5 knots; 2.6 m/s)
Visibility: 30 miles (48 km)
Ceiling: 25000 feet AGL
Clouds: few clouds at 1500 feet AGL
broken clouds at 25000 feet AGL
Weather: no significant weather observed at this time

METAR text: KEDW 052358Z 02004KT 30SM FEW015 BKN250 12/04 A3012 RMK AO2A SLP200 T01230040 10126 20086 55003
Conditions at: KEDW (EDWARDS AFB , CA, US) observed 2358 UTC 05 December 2019
Temperature: 12.3°C (54°F)
Dewpoint: 4.0°C (39°F) [RH = 57%]
Pressure (altimeter): 30.12 inches Hg (1020.1 mb)
[Sea-level pressure: 1020.0 mb]
Winds: from the NNE (20 degrees) at 5 MPH (4 knots; 2.1 m/s)
Visibility: 30 miles (48 km)
Ceiling: 25000 feet AGL
Clouds: few clouds at 1500 feet AGL
broken clouds at 25000 feet AGL
Weather: no significant weather observed at this time

METAR text: KEDW 052258Z 02005KT 30SM SCT010 BKN250 13/05 A3012 RMK AO2A SLP200 T01260046
Conditions at: KEDW (EDWARDS AFB , CA, US) observed 2258 UTC 05 December 2019
Temperature: 12.6°C (55°F)
Dewpoint: 4.6°C (40°F) [RH = 58%]
Pressure (altimeter): 30.12 inches Hg (1020.1 mb)
[Sea-level pressure: 1020.0 mb]
Winds: from the NNE (20 degrees) at 6 MPH (5 knots; 2.6 m/s)
Visibility: 30 miles (48 km)
Ceiling: 25000 feet AGL
Clouds: scattered clouds at 1000 feet AGL
broken clouds at 25000 feet AGL
Weather: no significant weather observed at this time

METAR text: KEDW 052158Z 00000KT 30SM SCT010 BKN250 12/05 A3012 RMK AO2A SLP200 T01180050
Conditions at: KEDW (EDWARDS AFB , CA, US) observed 2158 UTC 05 December 2019
Temperature: 11.8°C (53°F)
Dewpoint: 5.0°C (41°F) [RH = 63%]
Pressure (altimeter): 30.12 inches Hg (1020.1 mb)
[Sea-level pressure: 1020.0 mb]
Winds: calm
Visibility: 30 miles (48 km)
Ceiling: 25000 feet AGL
Clouds: scattered clouds at 1000 feet AGL
broken clouds at 25000 feet AGL
Weather: no significant weather observed at this time

METAR text: KEDW 052058Z 02005KT 30SM SCT002 BKN250 11/05 A3013 RMK AO2A SLP203 T01070052
Conditions at: KEDW (EDWARDS AFB , CA, US) observed 2058 UTC 05 December 2019
Temperature: 10.7°C (51°F)
Dewpoint: 5.2°C (41°F) [RH = 69%]
Pressure (altimeter): 30.13 inches Hg (1020.4 mb)
[Sea-level pressure: 1020.3 mb]
Winds: from the NNE (20 degrees) at 6 MPH (5 knots; 2.6 m/s)
Visibility: 30 miles (48 km)
Ceiling: 25000 feet AGL
Clouds: scattered clouds at 200 feet AGL
broken clouds at 25000 feet AGL
Weather: no significant weather observed at this time

METAR text: KEDW 051956Z 01005KT 30SM SCT002 BKN250 09/07 A3016 RMK AO2A VIS LWR NE SLP217 T00900070
Conditions at: KEDW (EDWARDS AFB , CA, US) observed 1956 UTC 05 December 2019
Temperature: 9.0°C (48°F)
Dewpoint: 7.0°C (45°F) [RH = 87%]
Pressure (altimeter): 30.16 inches Hg (1021.4 mb)
[Sea-level pressure: 1021.7 mb]
Winds: from the N (10 degrees) at 6 MPH (5 knots; 2.6 m/s)
Visibility: 30 miles (48 km)
Ceiling: 25000 feet AGL
Clouds: scattered clouds at 200 feet AGL
broken clouds at 25000 feet AGL
Weather: no significant weather observed at this time

METAR text: KEDW 051944Z 02007KT 15SM SCT002 BKN250 09/07 A3016 RMK A02A VIS LWR NE SLP217
Conditions at: KEDW (EDWARDS AFB , CA, US) observed 1944 UTC 05 December 2019
Temperature: 9.0°C (48°F)
Dewpoint: 7.0°C (45°F) [RH = 87%]
Pressure (altimeter): 30.16 inches Hg (1021.4 mb)
[Sea-level pressure: 1021.7 mb]
Winds: from the NNE (20 degrees) at 8 MPH (7 knots; 3.6 m/s)
Visibility: 15 miles (24 km)
Ceiling: 25000 feet AGL
Clouds: scattered clouds at 200 feet AGL
broken clouds at 25000 feet AGL
Weather: no significant weather observed at this time

METAR text: KEDW 051922Z 03005KT 5SM BKN002 BKN250 08/07 A3017 RMK SLP220 VIS LWR N-E-S
Conditions at: KEDW (EDWARDS AFB , CA, US) observed 1922 UTC 05 December 2019
Temperature: 8.0°C (46°F)
Dewpoint: 7.0°C (45°F) [RH = 93%]
Pressure (altimeter): 30.17 inches Hg (1021.8 mb)
[Sea-level pressure: 1022.0 mb]
Winds: from the NNE (30 degrees) at 6 MPH (5 knots; 2.6 m/s)
Visibility: 5 miles ( 8 km)
Ceiling: 200 feet AGL
Clouds: broken clouds at 200 feet AGL
broken clouds at 25000 feet AGL
Weather: no significant weather observed at this time

METAR text: KEDW 051911Z COR 04005KT 5SM BR SCT002 BKN200 07/07 A3017 RMK AO2A SLP220 VIS LWR N-E-S COR 1915
Conditions at: KEDW (EDWARDS AFB , CA, US) observed 1911 UTC 05 December 2019
Temperature: 7.0°C (45°F)
Dewpoint: 7.0°C (45°F) [RH = 100%]
Pressure (altimeter): 30.17 inches Hg (1021.8 mb)
[Sea-level pressure: 1022.0 mb]
Winds: from the NE (40 degrees) at 6 MPH (5 knots; 2.6 m/s)
Visibility: 5 miles ( 8 km)
Ceiling: 20000 feet AGL
Clouds: scattered clouds at 200 feet AGL
broken clouds at 20000 feet AGL
Weather: BR  (mist)

METAR text: KEDW 051856Z 03005KT 5SM SCT001 BKN060 BKN250 07/07 A3018 RMK AO2A SLP224 VIS LWR S T00720068
Conditions at: KEDW (EDWARDS AFB , CA, US) observed 1856 UTC 05 December 2019
Temperature: 7.2°C (45°F)
Dewpoint: 6.8°C (44°F) [RH = 97%]
Pressure (altimeter): 30.18 inches Hg (1022.1 mb)
[Sea-level pressure: 1022.4 mb]
Winds: from the NNE (30 degrees) at 6 MPH (5 knots; 2.6 m/s)
Visibility: 5 miles ( 8 km)
Ceiling: 6000 feet AGL
Clouds: scattered clouds at 100 feet AGL
broken clouds at 6000 feet AGL
broken clouds at 25000 feet AGL
Weather: no significant weather observed at this time

METAR text: KEDW 051756Z 04008KT 40SM SCT007 BKN060 06/06 A3019 RMK AO2A SLP229 T00620056 10062 20031 52027
Conditions at: KEDW (EDWARDS AFB , CA, US) observed 1756 UTC 05 December 2019
Temperature: 6.2°C (43°F)
Dewpoint: 5.6°C (42°F) [RH = 96%]
Pressure (altimeter): 30.19 inches Hg (1022.4 mb)
[Sea-level pressure: 1022.9 mb]
Winds: from the NE (40 degrees) at 9 MPH (8 knots; 4.1 m/s)
Visibility: 40 miles (64 km)
Ceiling: 6000 feet AGL
Clouds: scattered clouds at 700 feet AGL
broken clouds at 6000 feet AGL
Weather: no significant weather observed at this time

METAR text: KEDW 051656Z 35005KT 40SM FEW020 BKN060 05/05 A3017 RMK AO2A SLP222 T00540050
Conditions at: KEDW (EDWARDS AFB , CA, US) observed 1656 UTC 05 December 2019
Temperature: 5.4°C (42°F)
Dewpoint: 5.0°C (41°F) [RH = 97%]
Pressure (altimeter): 30.17 inches Hg (1021.8 mb)
[Sea-level pressure: 1022.2 mb]
Winds: from the N (350 degrees) at 6 MPH (5 knots; 2.6 m/s)
Visibility: 40 miles (64 km)
Ceiling: 6000 feet AGL
Clouds: few clouds at 2000 feet AGL
broken clouds at 6000 feet AGL
Weather: no significant weather observed at this time

METAR text: KEDW 051558Z 34005KT 50SM FEW020 BKN050 04/04 A3014 RMK AO2A SLP212 T00370036
Conditions at: KEDW (EDWARDS AFB , CA, US) observed 1558 UTC 05 December 2019
Temperature: 3.7°C (39°F)
Dewpoint: 3.6°C (38°F) [RH = 99%]
Pressure (altimeter): 30.14 inches Hg (1020.7 mb)
[Sea-level pressure: 1021.2 mb]
Winds: from the NNW (340 degrees) at 6 MPH (5 knots; 2.6 m/s)
Visibility: 50 miles (80 km)
Ceiling: 5000 feet AGL
Clouds: few clouds at 2000 feet AGL
broken clouds at 5000 feet AGL
Weather: no significant weather observed at this time

METAR text: KEDW 051458Z 01009KT 50SM SCT050 03/03 A3010 RMK AO2A SLP198 T00320029 53021
Conditions at: KEDW (EDWARDS AFB , CA, US) observed 1458 UTC 05 December 2019
Temperature: 3.2°C (38°F)
Dewpoint: 2.9°C (37°F) [RH = 98%]
Pressure (altimeter): 30.10 inches Hg (1019.4 mb)
[Sea-level pressure: 1019.8 mb]
Winds: from the N (10 degrees) at 10 MPH (9 knots; 4.6 m/s)
Visibility: 50 miles (80 km)
Ceiling: at least 12,000 feet AGL
Clouds: scattered clouds at 5000 feet AGL
Weather: no significant weather observed at this time

METAR text: KEDW 051358Z 21004KT 50SM FEW050 04/04 A3007 RMK AO2A SLP188 T00410037
Conditions at: KEDW (EDWARDS AFB , CA, US) observed 1358 UTC 05 December 2019
Temperature: 4.1°C (39°F)
Dewpoint: 3.7°C (39°F) [RH = 97%]
Pressure (altimeter): 30.07 inches Hg (1018.4 mb)
[Sea-level pressure: 1018.8 mb]
Winds: from the SSW (210 degrees) at 5 MPH (4 knots; 2.1 m/s)
Visibility: 50 miles (80 km)
Ceiling: at least 12,000 feet AGL
Clouds: few clouds at 5000 feet AGL
Weather: no significant weather observed at this time

METAR text: KEDW 051158Z AUTO 19006KT 10SM CLR 05/05 A3004 RMK AO2 SLP176 70049 T00520045 10079 20046 52010
Conditions at: KEDW (EDWARDS AFB , CA, US) observed 1158 UTC 05 December 2019
Temperature: 5.2°C (41°F)
Dewpoint: 4.5°C (40°F) [RH = 95%]
Pressure (altimeter): 30.04 inches Hg (1017.4 mb)
[Sea-level pressure: 1017.6 mb]
Winds: from the S (190 degrees) at 7 MPH (6 knots; 3.1 m/s)
Visibility: 10 or more miles (16+ km)
Ceiling: at least 12,000 feet AGL
Clouds: sky clear below 12,000 feet AGL
Weather: automated observation with no human augmentation;
there may or may not be significant weather present at this time

METAR text: KEDW 051058Z AUTO 15004KT 10SM CLR 05/05 A3002 RMK AO2 SLP167 T00530047
Conditions at: KEDW (EDWARDS AFB , CA, US) observed 1058 UTC 05 December 2019
Temperature: 5.3°C (42°F)
Dewpoint: 4.7°C (40°F) [RH = 96%]
Pressure (altimeter): 30.02 inches Hg (1016.7 mb)
[Sea-level pressure: 1016.7 mb]
Winds: from the SSE (150 degrees) at 5 MPH (4 knots; 2.1 m/s)
Visibility: 10 or more miles (16+ km)
Ceiling: at least 12,000 feet AGL
Clouds: sky clear below 12,000 feet AGL
Weather: automated observation with no human augmentation;
there may or may not be significant weather present at this time

METAR text: KEDW 050958Z AUTO 00000KT 10SM CLR 06/05 A3002 RMK AO2 SLP167 T00590045
Conditions at: KEDW (EDWARDS AFB , CA, US) observed 0958 UTC 05 December 2019
Temperature: 5.9°C (43°F)
Dewpoint: 4.5°C (40°F) [RH = 91%]
Pressure (altimeter): 30.02 inches Hg (1016.7 mb)
[Sea-level pressure: 1016.7 mb]
Winds: calm
Visibility: 10 or more miles (16+ km)
Ceiling: at least 12,000 feet AGL
Clouds: sky clear below 12,000 feet AGL
Weather: automated observation with no human augmentation;
there may or may not be significant weather present at this time

Forecast for: COR
Text: TAF COR KEDW 061433Z 0614/0720 VRB06KT 9999 FEW250 QNH3016INS
Forecast period: 1400 UTC 06 December 2019 to 0200 UTC 07 December 2019
Forecast type: FROM: standard forecast or significant change
Winds: variable direction winds at 7 MPH (6 knots; 3.1 m/s)
Visibility: 6 or more miles 10+ km)
Ceiling: at least 12,000 feet AGL
Clouds: few clouds at 25000 feet AGL
Weather: no significant weather forecast for this period
Text: BECMG 0702/0703 VRB06KT 9999 SCT200 QNH3016INS
Forecast period: 0200 to 1900 UTC 07 December 2019
Forecast type: BECOMING: Conditions expected to become as follows by 0300 UTC 07 December 2019
Winds: variable direction winds at 7 MPH (6 knots; 3.1 m/s)
Visibility: 6 or more miles 10+ km)
Ceiling: at least 12,000 feet AGL
Clouds: scattered clouds at 20000 feet AGL
Weather: no significant weather forecast for this period
Text: BECMG 0719/0720 23012KT 9999 BKN250 QNH3013INS TX16/0621Z TN05/0614Z
Forecast period: 1900 to 2000 UTC 07 December 2019
Forecast type: BECOMING: Conditions expected to become as follows by 2000 UTC 07 December 2019
Winds: from the SW (230 degrees) at 14 MPH (12 knots; 6.2 m/s)
Visibility: 6 or more miles 10+ km)
Ceiling: 25000 feet AGL
Clouds: broken clouds at 25000 feet AGL
Weather: no significant weather forecast for this period